createdAt,value
2022-09-26T00:05:03.296Z,14.43
2022-09-26T00:10:26.028Z,15.60
2022-09-26T00:15:48.298Z,15.58
2022-09-26T00:21:21.333Z,16.50
2022-09-26T00:26:46.068Z,18.00
2022-09-26T00:32:08.241Z,20.07
2022-09-26T00:37:30.488Z,19.70
2022-09-26T00:42:52.655Z,20.03
2022-09-26T00:48:19.471Z,18.23
2022-09-26T00:53:46.435Z,18.17
2022-09-26T00:59:13.628Z,17.12
2022-09-26T01:04:38.968Z,16.90
2022-09-26T01:10:02.457Z,19.50
2022-09-26T01:15:26.560Z,18.23
2022-09-26T01:21:43.754Z,18.03
2022-09-26T01:27:16.624Z,18.43
2022-09-26T01:33:04.215Z,17.70
2022-09-26T01:39:10.277Z,16.77
2022-09-26T01:44:55.998Z,17.70
2022-09-26T01:50:26.240Z,16.73
2022-09-26T01:56:15.496Z,19.63
2022-09-26T02:01:42.296Z,20.90
2022-09-26T02:07:10.253Z,21.10
2022-09-26T02:12:40.270Z,19.65
2022-09-26T02:18:10.120Z,19.77
2022-09-26T02:23:32.291Z,19.47
2022-09-26T02:28:55.190Z,19.93
2022-09-26T02:34:18.442Z,20.03
2022-09-26T02:39:40.651Z,20.97
2022-09-26T02:45:26.206Z,22.07
2022-09-26T02:51:29.332Z,21.37
2022-09-26T02:57:31.608Z,22.40
2022-09-26T03:03:27.069Z,22.42
2022-09-26T03:08:53.431Z,23.73
2022-09-26T03:14:17.276Z,23.95
2022-09-26T03:19:59.424Z,21.00
2022-09-26T03:25:28.212Z,21.07
2022-09-26T03:30:50.893Z,18.87
2022-09-26T03:36:15.177Z,21.33
2022-09-26T03:41:37.323Z,22.20
2022-09-26T03:46:59.473Z,21.93
2022-09-26T03:52:25.096Z,22.00
2022-09-26T03:57:47.248Z,23.22
2022-09-26T04:03:10.996Z,20.27
2022-09-26T04:08:33.630Z,20.70
2022-09-26T04:13:57.114Z,21.10
2022-09-26T04:19:20.018Z,22.58
2022-09-26T04:24:42.171Z,21.87
2022-09-26T04:30:04.397Z,22.23
2022-09-26T04:35:27.589Z,22.40
2022-09-26T04:40:49.965Z,22.63
2022-09-26T04:46:20.865Z,23.90
2022-09-26T04:51:42.669Z,24.20
2022-09-26T04:57:07.099Z,24.30
2022-09-26T05:02:30.510Z,22.73
2022-09-26T05:07:54.539Z,21.53
2022-09-26T05:13:19.981Z,20.63
2022-09-26T05:18:44.356Z,21.97
2022-09-26T05:24:24.448Z,22.30
2022-09-26T05:29:46.597Z,21.73
2022-09-26T05:35:08.733Z,22.17
2022-09-26T05:40:49.362Z,22.33
2022-09-26T05:46:17.599Z,22.67
2022-09-26T05:51:41.641Z,22.67
2022-09-26T05:57:03.780Z,23.18
2022-09-26T06:02:25.964Z,24.40
2022-09-26T06:07:48.498Z,24.77
2022-09-26T06:13:13.932Z,25.40
2022-09-26T06:18:36.243Z,29.70
2022-09-26T06:23:58.728Z,30.15
2022-09-26T06:29:22.433Z,29.93
2022-09-26T06:34:44.698Z,28.13
2022-09-26T06:40:08.712Z,27.13
2022-09-26T06:45:30.959Z,28.13
2022-09-26T06:50:56.218Z,27.10
2022-09-26T06:56:18.822Z,27.32
2022-09-26T07:01:41.867Z,27.50
2022-09-26T07:07:05.883Z,28.42
2022-09-26T07:12:28.674Z,27.87
2022-09-26T07:17:51.487Z,28.52
2022-09-26T07:23:16.433Z,29.53
2022-09-26T07:28:39.535Z,32.83
2022-09-26T07:34:03.400Z,28.15
2022-09-26T07:39:26.748Z,28.10
2022-09-26T07:50:15.905Z,25.40
2022-09-26T07:55:41.810Z,24.27
2022-09-26T08:01:04.315Z,26.67
2022-09-26T08:06:27.887Z,27.48
2022-09-26T08:11:50.654Z,25.40
2022-09-26T08:17:16.380Z,23.98
2022-09-26T08:22:38.660Z,23.10
2022-09-26T08:28:00.783Z,21.20
2022-09-26T08:33:25.871Z,20.23
2022-09-26T08:38:49.566Z,22.30
2022-09-26T08:44:35.828Z,27.30
2022-09-26T08:50:22.715Z,23.30
2022-09-26T08:55:53.590Z,21.37
2022-09-26T09:01:23.481Z,20.57
2022-09-26T09:06:47.979Z,18.77
2022-09-26T09:12:15.628Z,16.37
2022-09-26T09:18:01.383Z,15.43
2022-09-26T09:23:41.035Z,14.33
2022-09-26T09:29:28.726Z,15.23
2022-09-26T09:34:54.528Z,16.32
2022-09-26T09:40:20.541Z,14.40
2022-09-26T09:45:53.599Z,13.80
2022-09-26T09:51:27.800Z,10.93
2022-09-26T09:57:23.881Z,10.58
2022-09-26T10:03:12.241Z,11.65
2022-09-26T10:08:44.585Z,12.28
2022-09-26T10:14:12.541Z,13.87
2022-09-26T10:19:46.015Z,13.88
2022-09-26T10:25:15.187Z,13.85
2022-09-26T10:30:42.184Z,8.48
2022-09-26T10:36:09.232Z,8.58
2022-09-26T10:41:38.199Z,11.10
2022-09-26T10:47:08.812Z,6.40
2022-09-26T10:52:38.084Z,7.62
2022-09-26T10:58:14.204Z,10.03
2022-09-26T11:03:48.443Z,10.50
2022-09-26T11:09:16.837Z,10.65
2022-09-26T11:14:44.041Z,8.15
2022-09-26T11:20:11.191Z,8.98
2022-09-26T11:25:53.351Z,7.90
2022-09-26T11:31:19.964Z,7.72
2022-09-26T11:36:53.654Z,8.13
2022-09-26T11:42:53.360Z,7.87
2022-09-26T11:48:54.518Z,7.65
2022-09-26T12:00:12.508Z,6.58
2022-09-26T12:06:01.593Z,6.58
2022-09-26T12:11:45.918Z,6.08
2022-09-26T12:17:26.189Z,6.03
2022-09-26T12:28:46.373Z,5.95
2022-09-26T12:34:31.221Z,5.30
2022-09-26T12:40:32.424Z,5.70
2022-09-26T12:46:12.879Z,5.03
2022-09-26T12:51:56.349Z,6.63
2022-09-26T12:57:40.898Z,7.10
2022-09-26T13:03:22.132Z,6.55
2022-09-26T13:09:10.991Z,6.60
2022-09-26T13:14:50.281Z,6.77
2022-09-26T13:20:41.608Z,7.67
2022-09-26T13:26:12.284Z,7.13
2022-09-26T13:31:40.516Z,7.07
2022-09-26T13:37:04.678Z,7.30
2022-09-26T13:42:40.806Z,7.10
2022-09-26T13:48:18.917Z,6.07
2022-09-26T13:53:52.068Z,6.30
2022-09-26T13:59:41.131Z,6.23
2022-09-26T14:05:10.309Z,4.97
2022-09-26T14:10:43.967Z,4.97
2022-09-26T14:16:10.435Z,4.15
2022-09-26T14:22:12.623Z,3.85
2022-09-26T14:27:46.627Z,3.98
2022-09-26T14:33:15.596Z,3.35
2022-09-26T14:38:39.723Z,3.17
2022-09-26T14:49:44.813Z,2.60
2022-09-26T14:55:09.732Z,2.00
2022-09-26T15:00:53.404Z,2.27
2022-09-26T15:06:18.628Z,2.37
2022-09-26T15:12:04.655Z,2.00
2022-09-26T15:17:32.318Z,2.57
2022-09-26T15:22:56.645Z,2.63
2022-09-26T15:28:18.902Z,2.23
2022-09-26T15:33:41.039Z,2.53
2022-09-26T15:39:04.089Z,3.07
2022-09-26T15:44:35.327Z,2.75
2022-09-26T15:50:02.483Z,2.90
2022-09-26T15:55:34.866Z,2.80
2022-09-26T16:01:00.944Z,2.77
2022-09-26T16:06:36.311Z,2.53
2022-09-26T16:12:05.704Z,2.93
2022-09-26T16:17:36.543Z,2.77
2022-09-26T16:23:20.611Z,2.50
2022-09-26T16:29:00.318Z,3.70
2022-09-26T16:34:35.429Z,3.40
2022-09-26T16:40:02.937Z,3.40
2022-09-26T16:45:26.687Z,4.10
2022-09-26T16:50:50.203Z,3.47
2022-09-26T16:56:13.985Z,3.50
2022-09-26T17:01:55.877Z,3.87
2022-09-26T17:07:25.817Z,3.70
2022-09-26T17:12:50.025Z,3.40
2022-09-26T17:18:14.052Z,4.83
2022-09-26T17:23:41.816Z,4.92
2022-09-26T17:29:03.494Z,4.65
2022-09-26T17:34:28.597Z,4.53
2022-09-26T17:39:50.851Z,4.30
2022-09-26T17:45:13.791Z,5.42
2022-09-26T17:50:38.865Z,5.10
2022-09-26T17:56:02.697Z,4.50
2022-09-26T18:01:33.750Z,4.67
2022-09-26T18:06:57.458Z,7.40
2022-09-26T18:12:24.477Z,5.63
2022-09-26T18:17:47.282Z,6.23
2022-09-26T18:23:11.056Z,7.60
2022-09-26T18:28:35.737Z,8.45
2022-09-26T18:33:58.363Z,10.72
2022-09-26T18:39:21.290Z,7.87
2022-09-26T18:44:44.361Z,8.50
2022-09-26T18:50:07.369Z,7.67
2022-09-26T18:55:51.379Z,6.60
2022-09-26T19:01:21.719Z,7.22
2022-09-26T19:06:51.506Z,6.53
2022-09-26T19:12:15.797Z,6.90
2022-09-26T19:17:37.927Z,6.33
2022-09-26T19:23:00.729Z,6.20
2022-09-26T19:28:26.691Z,5.78
2022-09-26T19:33:51.137Z,5.80
2022-09-26T19:39:18.224Z,5.73
2022-09-26T19:44:40.526Z,6.33
2022-09-26T19:50:05.505Z,4.93
2022-09-26T19:55:36.722Z,4.90
2022-09-26T20:01:12.338Z,7.03
2022-09-26T20:06:39.783Z,6.65
2022-09-26T20:12:02.012Z,6.72
2022-09-26T20:17:42.682Z,6.30
2022-09-26T20:23:05.863Z,6.95
2022-09-26T20:28:29.682Z,6.25
2022-09-26T20:33:51.806Z,6.53
2022-09-26T20:39:18.907Z,6.20
2022-09-26T20:44:43.430Z,6.40
2022-09-26T20:50:09.348Z,7.10
2022-09-26T20:55:35.924Z,7.97
2022-09-26T21:01:01.055Z,8.40
2022-09-26T21:06:31.436Z,8.07
2022-09-26T21:11:53.690Z,8.50
2022-09-26T21:17:17.598Z,9.40
2022-09-26T21:22:41.852Z,9.00
2022-09-26T21:28:08.317Z,9.30
2022-09-26T21:33:32.620Z,9.67
2022-09-26T21:38:57.028Z,10.30
2022-09-26T21:44:32.612Z,10.90
2022-09-26T21:49:55.365Z,9.90
2022-09-26T21:55:24.607Z,10.20
2022-09-26T22:00:47.120Z,10.33
2022-09-26T22:06:10.673Z,9.75
2022-09-26T22:11:32.929Z,8.73
2022-09-26T22:16:55.098Z,9.08
2022-09-26T22:22:17.750Z,10.58
2022-09-26T22:27:40.203Z,9.40
2022-09-26T22:33:02.338Z,10.03
2022-09-26T22:38:24.697Z,9.43
2022-09-26T22:43:48.944Z,9.70
2022-09-26T22:49:11.110Z,9.00
2022-09-26T22:54:33.604Z,9.97
2022-09-26T22:59:55.804Z,9.10
2022-09-26T23:05:18.760Z,9.50
2022-09-26T23:10:41.413Z,8.77
2022-09-26T23:16:06.146Z,9.33
2022-09-26T23:21:32.212Z,9.53
2022-09-26T23:26:54.351Z,9.73
2022-09-26T23:32:16.517Z,8.93
2022-09-26T23:37:38.751Z,9.60
2022-09-26T23:43:01.445Z,9.63
2022-09-26T23:48:23.692Z,9.28
2022-09-26T23:53:46.368Z,9.47
2022-09-26T23:59:09.356Z,10.58
